createdAt,value
2023-01-31T00:00:23.237Z,5.57
2023-01-31T00:03:31.757Z,6.60
2023-01-31T00:06:42.629Z,3.73
2023-01-31T00:09:52.159Z,2.87
2023-01-31T00:13:00.495Z,2.67
2023-01-31T00:16:11.714Z,3.13
2023-01-31T00:19:20.188Z,4.10
2023-01-31T00:22:28.336Z,4.10
2023-01-31T00:25:38.279Z,4.60
2023-01-31T00:28:49.280Z,5.67
2023-01-31T00:32:00.245Z,3.90
2023-01-31T00:35:09.570Z,3.03
2023-01-31T00:38:17.721Z,2.30
2023-01-31T00:41:30.326Z,5.43
2023-01-31T00:44:38.738Z,3.53
2023-01-31T00:47:47.164Z,2.43
2023-01-31T00:50:55.735Z,6.97
2023-01-31T00:54:03.937Z,5.13
2023-01-31T00:57:13.761Z,4.97
2023-01-31T01:00:22.492Z,2.97
2023-01-31T01:03:30.999Z,3.77
2023-01-31T01:06:41.355Z,4.33
2023-01-31T01:09:49.765Z,3.37
2023-01-31T01:12:59.572Z,3.10
2023-01-31T01:16:09.612Z,2.90
2023-01-31T01:19:21.712Z,6.73
2023-01-31T01:22:29.981Z,6.90
2023-01-31T01:25:45.606Z,6.30
2023-01-31T01:28:58.223Z,5.70
2023-01-31T01:32:08.387Z,4.07
2023-01-31T01:35:17.116Z,8.97
2023-01-31T01:38:25.275Z,5.47
2023-01-31T01:41:34.566Z,3.27
2023-01-31T01:44:50.402Z,5.27
2023-01-31T01:48:05.117Z,6.77
2023-01-31T01:51:19.345Z,4.97
2023-01-31T01:54:37.860Z,3.03
2023-01-31T01:57:51.469Z,3.83
2023-01-31T02:01:02.162Z,5.40
2023-01-31T02:04:26.985Z,5.27
2023-01-31T02:07:36.003Z,5.30
2023-01-31T02:10:52.333Z,3.23
2023-01-31T02:14:04.933Z,6.13
2023-01-31T02:17:20.384Z,4.97
2023-01-31T02:21:21.115Z,4.10
2023-01-31T02:25:31.532Z,6.33
2023-01-31T02:29:15.537Z,2.43
2023-01-31T02:33:09.550Z,5.77
2023-01-31T02:36:34.331Z,4.77
2023-01-31T02:39:58.057Z,4.47
2023-01-31T02:43:17.105Z,2.73
2023-01-31T02:46:34.390Z,4.27
2023-01-31T02:49:53.290Z,2.67
2023-01-31T02:53:12.183Z,3.27
2023-01-31T02:56:27.721Z,3.70
2023-01-31T02:59:37.102Z,3.63
2023-01-31T03:02:45.809Z,8.03
2023-01-31T03:07:01.840Z,4.73
2023-01-31T03:10:32.908Z,3.83
2023-01-31T03:13:58.354Z,2.97
2023-01-31T03:17:34.781Z,7.73
2023-01-31T03:20:54.325Z,3.87
2023-01-31T03:24:05.824Z,3.20
2023-01-31T03:27:17.717Z,3.70
2023-01-31T03:30:38.743Z,4.27
2023-01-31T03:33:53.196Z,4.37
2023-01-31T03:37:13.834Z,4.43
2023-01-31T03:40:39.888Z,4.13
2023-01-31T03:43:59.873Z,3.40
2023-01-31T03:47:17.818Z,4.70
2023-01-31T03:50:34.595Z,5.17
2023-01-31T03:53:50.671Z,6.33
2023-01-31T03:57:04.302Z,5.73
2023-01-31T04:00:18.159Z,5.70
2023-01-31T04:03:39.829Z,4.57
2023-01-31T04:06:48.706Z,8.33
2023-01-31T04:09:57.170Z,4.80
2023-01-31T04:13:05.396Z,4.30
2023-01-31T04:16:15.484Z,4.40
2023-01-31T04:19:23.701Z,4.60
2023-01-31T04:22:32.063Z,5.43
2023-01-31T04:25:40.188Z,2.97
2023-01-31T04:28:48.421Z,2.53
2023-01-31T04:31:58.054Z,4.07
2023-01-31T04:35:07.458Z,4.33
2023-01-31T04:38:16.832Z,4.73
2023-01-31T04:41:26.140Z,4.47
2023-01-31T04:44:34.259Z,4.40
2023-01-31T04:47:45.117Z,2.93
2023-01-31T04:50:53.323Z,7.90
2023-01-31T04:54:01.775Z,5.13
2023-01-31T04:57:09.933Z,3.47
2023-01-31T05:00:19.957Z,3.57
2023-01-31T05:03:29.493Z,6.33
2023-01-31T05:06:37.594Z,6.17
2023-01-31T05:09:46.277Z,4.53
2023-01-31T05:12:54.412Z,4.07
2023-01-31T05:16:02.669Z,4.27
2023-01-31T05:19:12.269Z,6.37
2023-01-31T05:22:22.727Z,3.10
2023-01-31T05:25:31.730Z,4.17
2023-01-31T05:28:41.497Z,4.47
2023-01-31T05:31:53.202Z,3.57
2023-01-31T05:35:02.871Z,5.77
2023-01-31T05:38:11.319Z,4.90
2023-01-31T05:41:19.464Z,4.07
2023-01-31T05:44:27.668Z,2.97
2023-01-31T05:47:35.818Z,7.00
2023-01-31T05:50:45.315Z,11.07
2023-01-31T05:53:54.832Z,3.77
2023-01-31T05:57:02.920Z,4.47
2023-01-31T06:00:12.717Z,3.13
2023-01-31T06:03:20.812Z,3.13
2023-01-31T06:06:30.842Z,6.23
2023-01-31T06:09:40.586Z,4.37
2023-01-31T06:12:48.959Z,4.17
2023-01-31T06:15:57.085Z,4.43
2023-01-31T06:19:05.727Z,5.47
2023-01-31T06:22:15.236Z,4.00
2023-01-31T06:25:23.381Z,3.70
2023-01-31T06:28:31.813Z,4.07
2023-01-31T06:31:40.365Z,2.97
2023-01-31T06:34:48.710Z,4.40
2023-01-31T06:37:58.223Z,3.30
2023-01-31T06:41:06.690Z,5.33
2023-01-31T06:44:14.818Z,1.73
2023-01-31T06:47:22.952Z,4.60
2023-01-31T06:50:33.068Z,4.80
2023-01-31T06:53:42.825Z,5.40
2023-01-31T06:56:51.056Z,6.17
2023-01-31T06:59:59.184Z,3.53
2023-01-31T07:03:07.291Z,4.97
2023-01-31T07:06:15.395Z,4.30
2023-01-31T07:09:24.872Z,5.50
2023-01-31T07:12:33.091Z,4.83
2023-01-31T07:15:41.476Z,3.67
2023-01-31T07:18:49.626Z,3.60
2023-01-31T07:21:57.867Z,2.03
2023-01-31T07:25:08.682Z,5.63
2023-01-31T07:28:16.810Z,3.73
2023-01-31T07:31:24.990Z,3.90
2023-01-31T07:34:33.424Z,5.60
2023-01-31T07:37:43.499Z,2.60
2023-01-31T07:40:53.017Z,6.03
2023-01-31T07:44:01.256Z,6.63
2023-01-31T07:47:09.365Z,4.20
2023-01-31T07:50:18.315Z,3.87
2023-01-31T07:53:28.810Z,4.60
2023-01-31T07:56:40.506Z,2.97
2023-01-31T07:59:48.607Z,2.70
2023-01-31T08:03:14.541Z,3.17
2023-01-31T08:06:24.742Z,2.57
2023-01-31T08:09:33.053Z,4.33
2023-01-31T08:12:42.552Z,7.40
2023-01-31T08:15:53.754Z,2.27
2023-01-31T08:19:05.410Z,4.03
2023-01-31T08:22:13.610Z,4.00
2023-01-31T08:25:22.986Z,1.90
2023-01-31T08:28:33.984Z,4.37
2023-01-31T08:31:43.137Z,2.47
2023-01-31T08:34:51.924Z,5.17
2023-01-31T08:38:15.413Z,4.57
2023-01-31T08:41:26.212Z,2.50
2023-01-31T08:44:38.211Z,2.93
2023-01-31T08:47:46.691Z,4.13
2023-01-31T08:50:54.870Z,4.63
2023-01-31T08:54:03.283Z,3.50
2023-01-31T08:57:11.602Z,2.67
2023-01-31T09:00:22.960Z,3.67
2023-01-31T09:03:31.374Z,4.83
2023-01-31T09:06:42.526Z,5.53
2023-01-31T09:09:51.013Z,3.77
2023-01-31T09:13:00.813Z,2.73
2023-01-31T09:16:13.791Z,5.10
2023-01-31T09:19:22.732Z,2.43
2023-01-31T09:22:32.366Z,5.53
2023-01-31T09:25:46.940Z,4.30
2023-01-31T09:28:57.849Z,5.30
2023-01-31T09:32:07.892Z,2.77
2023-01-31T09:35:16.669Z,3.43
2023-01-31T09:38:25.223Z,4.17
2023-01-31T09:41:42.907Z,3.20
2023-01-31T09:45:03.295Z,2.23
2023-01-31T09:48:19.743Z,3.57
2023-01-31T09:51:28.555Z,3.47
2023-01-31T09:54:40.565Z,3.87
2023-01-31T09:58:01.669Z,3.97
2023-01-31T10:01:24.095Z,4.20
2023-01-31T10:04:58.836Z,1.20
2023-01-31T10:08:19.943Z,4.00
2023-01-31T10:11:38.268Z,2.73
2023-01-31T10:14:52.660Z,3.93
2023-01-31T10:18:07.108Z,4.20
2023-01-31T10:21:21.009Z,3.77
2023-01-31T10:24:37.509Z,3.73
2023-01-31T10:27:51.258Z,1.07
2023-01-31T10:31:06.358Z,6.40
2023-01-31T10:34:24.072Z,2.40
2023-01-31T10:37:40.405Z,5.30
2023-01-31T10:40:55.099Z,2.80
2023-01-31T10:44:14.448Z,1.57
2023-01-31T10:47:34.817Z,1.97
2023-01-31T10:50:59.235Z,3.20
2023-01-31T10:54:25.992Z,1.27
2023-01-31T10:57:35.422Z,1.60
2023-01-31T11:00:46.852Z,1.57
2023-01-31T11:04:00.370Z,3.43
2023-01-31T11:07:10.572Z,1.90
2023-01-31T11:10:27.769Z,4.07
2023-01-31T11:13:36.279Z,5.80
2023-01-31T11:16:45.270Z,5.23
2023-01-31T11:19:58.621Z,2.80
2023-01-31T11:23:08.238Z,1.50
2023-01-31T11:26:33.008Z,2.57
2023-01-31T11:29:54.603Z,3.00
2023-01-31T11:33:03.642Z,7.50
2023-01-31T11:36:15.727Z,4.07
2023-01-31T11:39:31.855Z,2.77
2023-01-31T11:42:54.086Z,3.53
2023-01-31T11:46:05.037Z,4.23
2023-01-31T11:49:19.677Z,2.20
2023-01-31T11:52:32.315Z,1.43
2023-01-31T11:55:43.052Z,2.33
2023-01-31T11:58:57.955Z,7.10
2023-01-31T12:02:06.881Z,3.10
2023-01-31T12:05:20.299Z,2.13
2023-01-31T12:08:37.038Z,5.30
2023-01-31T12:11:53.401Z,2.93
2023-01-31T12:15:06.206Z,3.27
2023-01-31T12:18:16.026Z,3.30
2023-01-31T12:21:44.543Z,4.27
2023-01-31T12:25:09.874Z,2.93
2023-01-31T12:28:38.497Z,2.73
2023-01-31T12:32:19.822Z,3.60
2023-01-31T12:35:58.283Z,1.97
2023-01-31T12:39:32.027Z,2.47
2023-01-31T12:42:55.787Z,3.63
2023-01-31T12:46:17.574Z,4.03
2023-01-31T12:49:49.968Z,2.30
2023-01-31T12:53:43.494Z,2.67
2023-01-31T12:57:05.430Z,4.93
2023-01-31T13:00:29.349Z,3.90
2023-01-31T13:04:04.507Z,2.77
2023-01-31T13:07:24.551Z,3.57
2023-01-31T13:10:40.879Z,2.80
2023-01-31T13:13:55.916Z,3.50
2023-01-31T13:17:11.606Z,1.80
2023-01-31T13:20:33.022Z,2.23
2023-01-31T13:23:48.532Z,4.90
2023-01-31T13:27:03.767Z,3.67
2023-01-31T13:30:34.757Z,2.03
2023-01-31T13:33:52.314Z,3.43
2023-01-31T13:37:07.159Z,3.47
2023-01-31T13:40:23.655Z,2.50
2023-01-31T13:43:32.100Z,2.57
2023-01-31T13:46:52.084Z,2.77
2023-01-31T13:50:06.912Z,3.53
2023-01-31T13:53:22.555Z,3.50
2023-01-31T13:56:36.437Z,3.03
2023-01-31T13:59:56.068Z,3.33
2023-01-31T14:03:08.239Z,4.20
2023-01-31T14:06:16.755Z,5.17
2023-01-31T14:09:27.972Z,5.87
2023-01-31T14:12:40.333Z,4.80
2023-01-31T14:15:52.156Z,5.50
2023-01-31T14:19:00.472Z,10.70
2023-01-31T14:22:17.998Z,7.93
2023-01-31T14:25:42.808Z,5.67
2023-01-31T14:28:52.414Z,3.60
2023-01-31T14:32:00.743Z,5.33
2023-01-31T14:35:47.696Z,2.50
2023-01-31T14:39:49.113Z,3.07
2023-01-31T14:43:35.198Z,2.20
2023-01-31T14:47:27.262Z,5.13
2023-01-31T14:50:58.443Z,2.90
2023-01-31T14:54:34.366Z,3.57
2023-01-31T14:57:46.942Z,4.23
2023-01-31T15:00:59.149Z,2.77
2023-01-31T15:04:21.510Z,3.87
2023-01-31T15:07:30.653Z,4.10
2023-01-31T15:10:57.519Z,2.67
2023-01-31T15:14:34.162Z,2.70
2023-01-31T15:17:46.552Z,2.13
2023-01-31T15:21:02.229Z,2.47
2023-01-31T15:24:20.932Z,2.20
2023-01-31T15:27:33.629Z,2.43
2023-01-31T15:30:43.018Z,2.33
2023-01-31T15:33:56.305Z,2.40
2023-01-31T15:37:16.554Z,4.00
2023-01-31T15:40:28.867Z,2.40
2023-01-31T15:43:39.550Z,2.03
2023-01-31T15:46:50.587Z,2.53
2023-01-31T15:49:59.019Z,2.50
2023-01-31T15:53:17.119Z,1.90
2023-01-31T15:56:28.713Z,3.60
2023-01-31T15:59:37.258Z,2.37
2023-01-31T16:02:48.934Z,3.10
2023-01-31T16:06:00.547Z,10.27
2023-01-31T16:09:27.732Z,5.73
2023-01-31T16:12:43.829Z,13.50
2023-01-31T16:15:52.846Z,22.03
2023-01-31T16:19:02.489Z,23.00
2023-01-31T16:22:28.483Z,27.87
2023-01-31T16:25:39.175Z,21.93
2023-01-31T16:28:53.690Z,19.63
2023-01-31T16:32:02.168Z,9.27
2023-01-31T16:35:24.952Z,7.60
2023-01-31T16:38:33.643Z,13.47
2023-01-31T16:41:52.602Z,11.80
2023-01-31T16:45:01.181Z,9.43
2023-01-31T16:48:26.869Z,8.33
2023-01-31T16:51:44.282Z,3.93
2023-01-31T16:54:55.744Z,2.03
2023-01-31T16:58:05.574Z,3.70
2023-01-31T17:01:17.375Z,3.70
2023-01-31T17:04:27.430Z,2.57
2023-01-31T17:07:38.173Z,1.90
2023-01-31T17:10:48.661Z,2.37
2023-01-31T17:13:58.660Z,3.10
2023-01-31T17:17:16.203Z,2.90
2023-01-31T17:20:29.736Z,3.07
2023-01-31T17:23:37.973Z,3.90
2023-01-31T17:26:47.155Z,3.23
2023-01-31T17:29:56.929Z,2.30
2023-01-31T17:33:05.557Z,4.03
2023-01-31T17:36:14.019Z,3.63
2023-01-31T17:39:22.495Z,5.17
2023-01-31T17:42:30.657Z,2.47
2023-01-31T17:45:41.053Z,2.23
2023-01-31T17:48:49.511Z,1.90
2023-01-31T17:51:58.941Z,2.47
2023-01-31T17:55:08.431Z,6.50
2023-01-31T17:58:19.270Z,2.93
2023-01-31T18:01:28.832Z,1.97
2023-01-31T18:04:37.351Z,2.83
2023-01-31T18:07:45.536Z,1.73
2023-01-31T18:10:54.644Z,3.03
2023-01-31T18:14:03.876Z,2.47
2023-01-31T18:17:13.521Z,1.77
2023-01-31T18:20:22.106Z,1.87
2023-01-31T18:23:30.444Z,2.90
2023-01-31T18:26:39.111Z,3.57
2023-01-31T18:29:47.272Z,13.63
2023-01-31T18:32:57.116Z,14.47
2023-01-31T18:36:09.959Z,20.03
2023-01-31T18:39:18.223Z,3.03
2023-01-31T18:42:26.861Z,2.07
2023-01-31T18:45:35.315Z,6.30
2023-01-31T18:48:45.139Z,5.07
2023-01-31T18:51:53.518Z,7.17
2023-01-31T18:55:01.791Z,4.33
2023-01-31T18:58:10.468Z,3.47
2023-01-31T19:01:21.399Z,2.03
2023-01-31T19:04:31.483Z,4.03
2023-01-31T19:07:39.942Z,3.90
2023-01-31T19:10:48.430Z,5.63
2023-01-31T19:13:57.923Z,2.20
2023-01-31T19:17:06.131Z,4.10
2023-01-31T19:20:15.956Z,2.60
2023-01-31T19:23:24.443Z,3.67
2023-01-31T19:26:35.369Z,2.87
2023-01-31T19:29:43.741Z,2.00
2023-01-31T19:32:51.960Z,1.60
2023-01-31T19:36:02.070Z,2.83
2023-01-31T19:39:13.175Z,2.23
2023-01-31T19:42:21.958Z,2.03
2023-01-31T19:45:30.210Z,1.47
2023-01-31T19:48:38.784Z,2.27
2023-01-31T19:51:48.319Z,2.30
2023-01-31T19:54:56.617Z,3.07
2023-01-31T19:58:05.091Z,2.13
2023-01-31T20:01:16.603Z,1.97
2023-01-31T20:04:25.393Z,2.97
2023-01-31T20:07:37.517Z,1.87
2023-01-31T20:10:45.917Z,3.13
2023-01-31T20:13:57.859Z,3.43
2023-01-31T20:17:06.742Z,1.43
2023-01-31T20:20:15.068Z,1.53
2023-01-31T20:23:26.030Z,2.10
2023-01-31T20:26:35.891Z,2.47
2023-01-31T20:29:47.191Z,1.60
2023-01-31T20:32:55.688Z,1.43
2023-01-31T20:36:05.219Z,1.53
2023-01-31T20:39:14.904Z,1.83
2023-01-31T20:42:25.655Z,2.97
2023-01-31T20:45:35.336Z,3.13
2023-01-31T20:48:44.161Z,2.17
2023-01-31T20:51:52.391Z,1.83
2023-01-31T20:55:02.408Z,2.50
2023-01-31T20:58:10.596Z,1.27
2023-01-31T21:01:18.924Z,2.33
2023-01-31T21:04:29.602Z,2.03
2023-01-31T21:07:37.852Z,2.50
2023-01-31T21:10:52.056Z,1.33
2023-01-31T21:14:00.257Z,1.33
2023-01-31T21:17:08.916Z,1.30
2023-01-31T21:20:17.479Z,2.33
2023-01-31T21:23:26.061Z,1.30
2023-01-31T21:26:36.303Z,1.23
2023-01-31T21:29:44.514Z,1.43
2023-01-31T21:32:52.931Z,1.13
2023-01-31T21:36:08.343Z,1.30
2023-01-31T21:39:17.122Z,2.60
2023-01-31T21:42:27.197Z,4.63
2023-01-31T21:45:41.762Z,1.37
2023-01-31T21:48:51.418Z,1.43
2023-01-31T21:51:59.801Z,3.93
2023-01-31T21:55:10.027Z,1.80
2023-01-31T21:58:20.882Z,2.50
2023-01-31T22:01:32.767Z,1.73
2023-01-31T22:04:40.986Z,1.90
2023-01-31T22:07:49.439Z,1.47
2023-01-31T22:11:03.093Z,2.20
2023-01-31T22:14:15.413Z,2.77
2023-01-31T22:17:23.731Z,2.80
2023-01-31T22:20:32.196Z,2.20
2023-01-31T22:23:45.545Z,1.43
2023-01-31T22:26:53.853Z,3.30
2023-01-31T22:30:15.143Z,2.87
2023-01-31T22:33:24.578Z,1.93
2023-01-31T22:36:33.150Z,2.10
2023-01-31T22:39:41.572Z,1.43
2023-01-31T22:42:50.029Z,2.13
2023-01-31T22:46:01.289Z,2.70
2023-01-31T22:49:09.865Z,1.53
2023-01-31T22:52:18.121Z,2.10
2023-01-31T22:55:26.521Z,1.30
2023-01-31T22:58:35.474Z,2.10
2023-01-31T23:01:45.580Z,2.63
2023-01-31T23:04:53.959Z,2.63
2023-01-31T23:08:03.347Z,1.77
2023-01-31T23:11:14.699Z,1.30
2023-01-31T23:14:23.045Z,2.47
2023-01-31T23:17:38.578Z,1.80
2023-01-31T23:20:46.912Z,2.20
2023-01-31T23:23:55.479Z,3.23
2023-01-31T23:27:03.919Z,4.13
2023-01-31T23:30:15.204Z,2.87
2023-01-31T23:33:25.051Z,2.97
2023-01-31T23:36:33.630Z,1.43
2023-01-31T23:39:42.187Z,3.70
2023-01-31T23:42:50.313Z,1.57
2023-01-31T23:45:58.820Z,3.80
2023-01-31T23:49:08.963Z,1.77
2023-01-31T23:52:17.120Z,2.20
2023-01-31T23:55:25.295Z,3.90
2023-01-31T23:58:33.397Z,2.23
